createdAt,value
2018-11-14T00:00:57.508Z,24.20
2018-11-14T00:03:26.757Z,29.10
2018-11-14T00:05:56.173Z,28.40
2018-11-14T00:09:38.772Z,23.20
2018-11-14T00:12:11.535Z,24.80
2018-11-14T00:14:40.605Z,27.30
2018-11-14T00:17:10.401Z,19.73
2018-11-14T00:19:40.008Z,24.63
2018-11-14T00:22:09.125Z,20.43
2018-11-14T00:24:57.035Z,17.63
2018-11-14T00:27:26.267Z,18.80
2018-11-14T00:29:55.317Z,18.20
2018-11-14T00:32:24.438Z,22.10
2018-11-14T00:35:00.131Z,37.37
2018-11-14T00:37:29.172Z,22.47
2018-11-14T00:40:00.675Z,22.93
2018-11-14T00:42:29.801Z,18.00
2018-11-14T00:45:01.071Z,25.13
2018-11-14T00:47:30.381Z,21.53
2018-11-14T00:49:59.485Z,25.80
2018-11-14T00:52:28.823Z,33.33
2018-11-14T00:54:57.960Z,20.67
2018-11-14T00:57:33.460Z,18.33
2018-11-14T01:00:02.634Z,21.53
2018-11-14T01:02:32.163Z,21.20
2018-11-14T01:05:01.221Z,32.47
2018-11-14T01:07:36.138Z,27.20
2018-11-14T01:10:07.738Z,26.50
2018-11-14T01:12:36.904Z,27.10
2018-11-14T01:15:08.980Z,27.30
2018-11-14T01:17:38.671Z,25.30
2018-11-14T01:20:10.109Z,32.27
2018-11-14T01:22:39.369Z,37.03
2018-11-14T01:25:35.510Z,26.53
2018-11-14T01:28:05.351Z,27.40
2018-11-14T01:30:34.430Z,24.60
2018-11-14T01:33:03.502Z,24.37
2018-11-14T01:38:38.814Z,19.63
2018-11-14T01:41:07.962Z,21.00
2018-11-14T01:43:37.044Z,25.93
2018-11-14T01:46:08.218Z,18.40
2018-11-14T01:48:43.411Z,33.80
2018-11-14T01:51:13.318Z,29.50
2018-11-14T01:57:12.420Z,26.00
2018-11-14T01:59:42.500Z,22.20
2018-11-14T02:02:14.740Z,29.70
2018-11-14T02:04:44.004Z,28.93
2018-11-14T02:07:15.450Z,47.37
2018-11-14T02:09:44.558Z,26.27
2018-11-14T02:12:13.739Z,29.83
2018-11-14T02:14:47.558Z,26.43
2018-11-14T02:17:48.148Z,32.57
2018-11-14T02:20:44.576Z,33.87
2018-11-14T02:23:14.230Z,31.20
2018-11-14T02:25:43.330Z,34.70
2018-11-14T02:28:12.354Z,25.70
2018-11-14T02:30:41.380Z,41.40
2018-11-14T02:33:21.689Z,32.40
2018-11-14T02:35:50.861Z,31.63
2018-11-14T02:38:20.973Z,28.53
2018-11-14T02:40:50.138Z,33.10
2018-11-14T02:46:07.524Z,34.07
2018-11-14T02:48:36.652Z,33.20
2018-11-14T02:52:06.572Z,35.27
2018-11-14T02:54:52.266Z,30.03
2018-11-14T02:57:21.429Z,36.13
2018-11-14T02:59:50.523Z,41.97
2018-11-14T03:02:19.580Z,35.70
2018-11-14T03:04:48.929Z,38.70
2018-11-14T03:07:18.107Z,35.13
2018-11-14T03:12:55.146Z,27.15
2018-11-14T03:15:24.276Z,38.53
2018-11-14T03:18:31.722Z,39.63
2018-11-14T03:21:00.909Z,40.10
2018-11-14T03:23:29.938Z,31.93
2018-11-14T03:29:10.257Z,30.70
2018-11-14T03:34:57.581Z,42.63
2018-11-14T03:37:29.325Z,47.17
2018-11-14T03:39:58.449Z,45.80
2018-11-14T03:45:47.171Z,60.10
2018-11-14T03:48:29.668Z,58.43
2018-11-14T03:50:58.868Z,40.17
2018-11-14T03:53:27.940Z,41.30
2018-11-14T03:56:01.979Z,37.83
2018-11-14T03:58:31.163Z,46.80
2018-11-14T04:01:00.233Z,41.20
2018-11-14T04:03:29.434Z,51.27
2018-11-14T04:05:58.469Z,47.87
2018-11-14T04:08:35.318Z,37.43
2018-11-14T04:24:39.076Z,45.88
2018-11-14T04:27:08.201Z,44.50
2018-11-14T04:29:37.453Z,49.13
2018-11-14T04:32:07.359Z,48.00
2018-11-14T04:34:36.521Z,44.37
2018-11-14T04:37:09.220Z,51.67
2018-11-14T04:39:38.355Z,49.57
2018-11-14T04:42:09.683Z,49.80
2018-11-14T04:45:44.231Z,58.00
2018-11-14T04:48:15.083Z,56.27
2018-11-14T04:51:10.487Z,60.17
2018-11-14T04:53:39.621Z,55.23
2018-11-14T04:56:13.975Z,68.23
2018-11-14T04:59:09.477Z,62.97
2018-11-14T05:01:44.585Z,65.23
2018-11-14T05:04:13.863Z,71.63
2018-11-14T05:06:43.159Z,69.93
2018-11-14T05:09:13.363Z,63.97
2018-11-14T05:11:42.815Z,69.43
2018-11-14T05:14:13.871Z,67.67
2018-11-14T05:17:25.374Z,76.63
2018-11-14T05:19:54.573Z,67.47
2018-11-14T05:22:23.678Z,73.43
2018-11-14T05:24:52.866Z,85.33
2018-11-14T05:27:22.091Z,80.87
2018-11-14T05:29:52.213Z,82.83
2018-11-14T05:32:46.580Z,65.93
2018-11-14T05:48:47.989Z,69.05
2018-11-14T05:51:17.331Z,77.83
2018-11-14T05:56:48.554Z,79.30
2018-11-14T05:59:50.099Z,69.97
2018-11-14T06:02:19.738Z,83.47
2018-11-14T06:04:54.016Z,96.10
2018-11-14T06:07:24.072Z,75.93
2018-11-14T06:09:53.771Z,92.47
2018-11-14T06:12:22.958Z,88.83
2018-11-14T06:14:54.362Z,81.30
2018-11-14T06:17:24.271Z,86.40
2018-11-14T06:19:54.737Z,84.10
2018-11-14T06:22:24.812Z,84.50
2018-11-14T06:24:54.133Z,104.07
2018-11-14T06:27:23.202Z,103.47
2018-11-14T06:29:52.358Z,95.67
2018-11-14T06:32:24.776Z,99.17
2018-11-14T06:34:56.840Z,91.77
2018-11-14T06:38:41.606Z,94.57
2018-11-14T06:41:33.358Z,90.93
2018-11-14T06:44:02.704Z,109.07
2018-11-14T06:49:31.697Z,100.30
2018-11-14T06:52:02.144Z,105.20
2018-11-14T06:54:31.377Z,100.47
2018-11-14T07:00:06.379Z,100.03
2018-11-14T07:02:38.337Z,92.60
2018-11-14T07:05:31.278Z,93.67
2018-11-14T07:08:30.478Z,80.90
2018-11-14T07:11:02.369Z,79.87
2018-11-14T07:13:34.266Z,78.80
2018-11-14T07:16:05.271Z,80.53
2018-11-14T07:18:34.642Z,86.57
2018-11-14T07:22:39.217Z,86.70
2018-11-14T07:25:32.999Z,70.37
2018-11-14T07:28:02.523Z,73.23
2018-11-14T07:33:31.113Z,86.10
2018-11-14T07:36:00.413Z,65.87
2018-11-14T07:38:38.649Z,71.20
2018-11-14T07:41:10.175Z,65.60
2018-11-14T07:43:39.898Z,73.97
2018-11-14T07:46:09.683Z,59.17
2018-11-14T07:48:39.452Z,63.10
2018-11-14T07:51:08.602Z,67.77
2018-11-14T07:53:37.767Z,71.47
2018-11-14T07:56:06.950Z,57.40
2018-11-14T07:58:36.334Z,67.30
2018-11-14T08:01:05.729Z,64.97
2018-11-14T08:03:34.797Z,60.03
2018-11-14T08:06:16.106Z,63.33
2018-11-14T08:08:45.609Z,69.73
2018-11-14T08:11:18.952Z,63.43
2018-11-14T08:13:49.218Z,64.93
2018-11-14T08:22:18.609Z,61.00
2018-11-14T08:24:48.120Z,51.77
2018-11-14T08:43:08.030Z,64.67
2018-11-14T08:45:53.397Z,62.23
2018-11-14T08:48:25.754Z,63.60
2018-11-14T09:23:39.757Z,65.57
2018-11-14T09:26:24.027Z,52.13
2018-11-14T09:29:42.111Z,54.87
2018-11-14T09:32:17.187Z,69.03
2018-11-14T09:34:46.529Z,56.57
2018-11-14T09:38:01.813Z,57.20
2018-11-14T09:40:31.702Z,48.20
2018-11-14T09:43:01.448Z,49.37
2018-11-14T09:45:31.288Z,62.47
2018-11-14T09:56:33.450Z,51.47
2018-11-14T09:59:05.716Z,58.03
2018-11-14T10:11:46.690Z,50.60
2018-11-14T10:17:32.056Z,44.97
2018-11-14T10:20:12.555Z,44.23
2018-11-14T10:25:55.138Z,45.40
2018-11-14T10:28:30.221Z,40.63
2018-11-14T10:34:19.344Z,40.47
2018-11-14T10:36:51.652Z,43.73
2018-11-14T10:39:20.716Z,47.30
2018-11-14T10:41:49.835Z,47.23
2018-11-14T10:44:19.259Z,55.80
2018-11-14T10:46:48.657Z,49.10
2018-11-14T10:52:44.570Z,43.40
2018-11-14T10:58:09.895Z,40.20
2018-11-14T11:10:12.541Z,40.50
2018-11-14T11:13:07.884Z,52.00
2018-11-14T11:18:20.884Z,41.90
2018-11-14T11:42:54.969Z,42.57
2018-11-14T11:45:24.286Z,40.30
2018-11-14T12:46:51.916Z,49.50
2018-11-14T12:49:31.168Z,45.00
2018-11-14T14:29:08.106Z,60.25
2018-11-14T14:39:06.746Z,53.03
2018-11-14T14:41:39.356Z,65.73
2018-11-14T14:44:16.947Z,47.63
2018-11-14T14:47:42.334Z,63.43
2018-11-14T14:50:45.345Z,42.33
2018-11-14T15:38:15.077Z,43.80
2018-11-14T15:50:07.255Z,36.17
